Alessandro F — IBVQ — position and weather

sailwx.info

Track history (hours):
 
Tides and Currents Weather Stations Pressure Air Temp Water Temp Dewpoint Dewpoint Depression Visibility Wind Speed Wind Dir Waves Ship Positions

Alessandro F

Last reported at 2017-Jun-24 12:50 UTC. Time now 2017-Jun-25 12:12 UTC.
Position N 44°30' E 012°19'.

Length 100 m; draft 5.3 m.

Type: Ship (hazmat cat B). MMSI: 247046400.

Date/timePositionNaut miles runAvg speedWind from/ knotsBaromVisibWave heightAir tempDewpointWater temp
2017-Jun-24 12:50N 44°30' E 012°19'0 0.2
2017-Jun-24 11:49N 44°31' E 012°20'0 0.0
2017-Jun-24 07:43N 44°31' E 012°20'0 0.0
2017-Jun-24 07:28N 44°31' E 012°20'0 0.0
2017-Jun-24 06:16N 44°31' E 012°20'0 0.0
2017-Jun-24 05:46N 44°31' E 012°20'0 0.0
2017-Jun-23 22:07N 44°31' E 012°20'0 0.0
2017-Jun-23 21:40N 44°31' E 012°20'0 0.0
2017-Jun-23 21:25N 44°31' E 012°20'0 0.0
2017-Jun-23 19:46N 44°31' E 012°20'0 0.0
2017-Jun-23 19:19N 44°31' E 012°20'0 0.0
2017-Jun-23 18:58N 44°31' E 012°20'0 0.0
2017-Jun-23 18:16N 44°31' E 012°20'0 0.0
2017-Jun-23 17:55N 44°31' E 012°20'0 0.0
2017-Jun-23 12:58N 44°31' E 012°20'0 0.0
2017-Jun-23 11:34N 44°31' E 012°20'0 0.0
2017-Jun-23 07:25N 44°31' E 012°20'0 0.0
2017-Jun-23 05:31N 44°31' E 012°20'0 0.0
2017-Jun-23 05:07N 44°31' E 012°20'0 0.0
2017-Jun-23 04:43N 44°31' E 012°20'0 0.0
2017-Jun-23 04:25N 44°31' E 012°20'0 0.0
2017-Jun-23 02:46N 44°31' E 012°20'0 0.0
2017-Jun-22 20:43N 44°31' E 012°20'0 0.0
2017-Jun-22 20:19N 44°31' E 012°20'0 0.0
2017-Jun-22 19:49N 44°31' E 012°20'0 0.0
2017-Jun-22 19:19N 44°31' E 012°20'0 0.0
2017-Jun-22 18:58N 44°31' E 012°20'0 0.0
2017-Jun-22 11:55N 44°31' E 012°20'0 0.0
2017-Jun-22 11:28N 44°31' E 012°20'0 0.0
2017-Jun-22 10:58N 44°31' E 012°20'0 0.0
2017-Jun-21 22:01N 44°31' E 012°20'0 0.0
2017-Jun-21 21:52N 44°31' E 012°20'0 0.1
2017-Jun-21 21:10N 44°31' E 012°20'0 0.0
2017-Jun-21 20:55N 44°31' E 012°20'0 0.0
2017-Jun-21 20:13N 44°31' E 012°20'0 0.0
2017-Jun-21 19:55N 44°31' E 012°20'0 0.0
2017-Jun-21 19:28N 44°31' E 012°20'0 0.0
2017-Jun-21 18:10N 44°31' E 012°20'0 0.0
2017-Jun-21 17:46N 44°31' E 012°20'0 0.0
2017-Jun-21 09:19N 44°30' E 012°20'0 0.0
2017-Jun-21 05:58N 44°31' E 012°20'0 0.0
2017-Jun-21 04:10N 44°31' E 012°20'0 0.0
2017-Jun-21 03:55N 44°31' E 012°20'0 0.0
2017-Jun-21 03:22N 44°31' E 012°20'0 0.0
2017-Jun-21 02:37N 44°31' E 012°20'0 0.0
2017-Jun-21 01:46N 44°31' E 012°20'0 0.0
2017-Jun-21 01:19N 44°31' E 012°20'0 0.0
2017-Jun-20 23:07N 44°31' E 012°20'0 0.1
2017-Jun-20 23:01N 44°31' E 012°20'0 0.0
2017-Jun-20 21:49N 44°31' E 012°20'0 0.0
2017-Jun-20 21:28N 44°31' E 012°20'0 0.0
2017-Jun-20 20:49N 44°31' E 012°20'0 0.2
2017-Jun-20 20:20N 44°30' E 012°20'3 7.1
2017-Jun-20 19:56N 44°31' E 012°23'3 6.0
2017-Jun-20 19:30N 44°33' E 012°26'3 5.1
2017-Jun-20 18:57N 44°35' E 012°23'4 7.5
2017-Jun-20 18:25N 44°31' E 012°21'1 1.9
2017-Jun-20 17:48N 44°30' E 012°20'0 0.0
2017-Jun-20 17:00N 44°30' E 012°20'0 0.0
2017-Jun-20 13:48N 44°30' E 012°20'3 0.8
2017-Jun-20 10:18N 44°29' E 012°16'40 0.8
2017-Jun-18 10:32N 44°16' E 013°09'013.0
2017-Jun-18 10:30N 44°16' E 013°09'  
2017-Jun-15 23:17N 37°19' E 023°41'613.0
2017-Jun-15 22:48N 37°26' E 023°42'413.0
2017-Jun-15 22:30N 37°29' E 023°42'712.8
2017-Jun-15 21:59N 37°36' E 023°42'612.8
2017-Jun-15 21:30N 37°42' E 023°41'713.3
2017-Jun-15 21:00N 37°48' E 023°37'713.2
2017-Jun-15 20:30N 37°55' E 023°35'2 3.9
2017-Jun-15 19:59N 37°55' E 023°33'0 0.0
2017-Jun-15 19:29N 37°55' E 023°33'0 0.0
2017-Jun-15 18:59N 37°55' E 023°33'0 0.1
2017-Jun-15 18:29N 37°55' E 023°33'0 0.0
2017-Jun-15 17:59N 37°55' E 023°33'0 0.0
2017-Jun-15 17:29N 37°55' E 023°33'0 0.0
2017-Jun-15 16:59N 37°55' E 023°33'0 0.0
2017-Jun-15 16:29N 37°55' E 023°33'0 0.0
2017-Jun-15 15:59N 37°55' E 023°33'0 0.0
2017-Jun-15 15:29N 37°55' E 023°33'0 0.0
2017-Jun-15 14:59N 37°55' E 023°33'0 0.0
2017-Jun-15 14:29N 37°55' E 023°33'0 0.0
2017-Jun-15 13:29N 37°55' E 023°33'0 0.0
2017-Jun-15 12:59N 37°55' E 023°33'1 1.9
2017-Jun-15 12:31N 37°55' E 023°34'2 3.5
2017-Jun-15 12:01N 37°53' E 023°35'713.3
2017-Jun-15 11:30N 37°49' E 023°41'713.6
2017-Jun-15 11:00N 37°42' E 023°45'  
Track history (hours):
 
Tides and Currents Weather Stations Pressure Air Temp Water Temp Dewpoint Dewpoint Depression Visibility Wind Speed Wind Dir Waves Ship Positions

Alessandro F

Last reported at 2017-Jun-24 12:50 UTC. Time now 2017-Jun-25 12:12 UTC.
Position N 44°30' E 012°19'.

Length 100 m; draft 5.3 m.

Type: Ship (hazmat cat B). MMSI: 247046400.

Date/timePositionNaut miles runAvg speedWind from/ knotsBaromVisibWave heightAir tempDewpointWater temp
2017-Jun-24 12:50N 44°30' E 012°19'0 0.2
2017-Jun-24 11:49N 44°31' E 012°20'0 0.0
2017-Jun-24 07:43N 44°31' E 012°20'0 0.0
2017-Jun-24 07:28N 44°31' E 012°20'0 0.0
2017-Jun-24 06:16N 44°31' E 012°20'0 0.0
2017-Jun-24 05:46N 44°31' E 012°20'0 0.0
2017-Jun-23 22:07N 44°31' E 012°20'0 0.0
2017-Jun-23 21:40N 44°31' E 012°20'0 0.0
2017-Jun-23 21:25N 44°31' E 012°20'0 0.0
2017-Jun-23 19:46N 44°31' E 012°20'0 0.0
2017-Jun-23 19:19N 44°31' E 012°20'0 0.0
2017-Jun-23 18:58N 44°31' E 012°20'0 0.0
2017-Jun-23 18:16N 44°31' E 012°20'0 0.0
2017-Jun-23 17:55N 44°31' E 012°20'0 0.0
2017-Jun-23 12:58N 44°31' E 012°20'0 0.0
2017-Jun-23 11:34N 44°31' E 012°20'0 0.0
2017-Jun-23 07:25N 44°31' E 012°20'0 0.0
2017-Jun-23 05:31N 44°31' E 012°20'0 0.0
2017-Jun-23 05:07N 44°31' E 012°20'0 0.0
2017-Jun-23 04:43N 44°31' E 012°20'0 0.0
2017-Jun-23 04:25N 44°31' E 012°20'0 0.0
2017-Jun-23 02:46N 44°31' E 012°20'0 0.0
2017-Jun-22 20:43N 44°31' E 012°20'0 0.0
2017-Jun-22 20:19N 44°31' E 012°20'0 0.0
2017-Jun-22 19:49N 44°31' E 012°20'0 0.0
2017-Jun-22 19:19N 44°31' E 012°20'0 0.0
2017-Jun-22 18:58N 44°31' E 012°20'0 0.0
2017-Jun-22 11:55N 44°31' E 012°20'0 0.0
2017-Jun-22 11:28N 44°31' E 012°20'0 0.0
2017-Jun-22 10:58N 44°31' E 012°20'0 0.0
2017-Jun-21 22:01N 44°31' E 012°20'0 0.0
2017-Jun-21 21:52N 44°31' E 012°20'0 0.1
2017-Jun-21 21:10N 44°31' E 012°20'0 0.0
2017-Jun-21 20:55N 44°31' E 012°20'0 0.0
2017-Jun-21 20:13N 44°31' E 012°20'0 0.0
2017-Jun-21 19:55N 44°31' E 012°20'0 0.0
2017-Jun-21 19:28N 44°31' E 012°20'0 0.0
2017-Jun-21 18:10N 44°31' E 012°20'0 0.0
2017-Jun-21 17:46N 44°31' E 012°20'0 0.0
2017-Jun-21 09:19N 44°30' E 012°20'0 0.0
2017-Jun-21 05:58N 44°31' E 012°20'0 0.0
2017-Jun-21 04:10N 44°31' E 012°20'0 0.0
2017-Jun-21 03:55N 44°31' E 012°20'0 0.0
2017-Jun-21 03:22N 44°31' E 012°20'0 0.0
2017-Jun-21 02:37N 44°31' E 012°20'0 0.0
2017-Jun-21 01:46N 44°31' E 012°20'0 0.0
2017-Jun-21 01:19N 44°31' E 012°20'0 0.0
2017-Jun-20 23:07N 44°31' E 012°20'0 0.1
2017-Jun-20 23:01N 44°31' E 012°20'0 0.0
2017-Jun-20 21:49N 44°31' E 012°20'0 0.0
2017-Jun-20 21:28N 44°31' E 012°20'0 0.0
2017-Jun-20 20:49N 44°31' E 012°20'0 0.2
2017-Jun-20 20:20N 44°30' E 012°20'3 7.1
2017-Jun-20 19:56N 44°31' E 012°23'3 6.0
2017-Jun-20 19:30N 44°33' E 012°26'3 5.1
2017-Jun-20 18:57N 44°35' E 012°23'4 7.5
2017-Jun-20 18:25N 44°31' E 012°21'1 1.9
2017-Jun-20 17:48N 44°30' E 012°20'0 0.0
2017-Jun-20 17:00N 44°30' E 012°20'0 0.0
2017-Jun-20 13:48N 44°30' E 012°20'3 0.8
2017-Jun-20 10:18N 44°29' E 012°16'40 0.8
2017-Jun-18 10:32N 44°16' E 013°09'013.0
2017-Jun-18 10:30N 44°16' E 013°09'  
2017-Jun-15 23:17N 37°19' E 023°41'613.0
2017-Jun-15 22:48N 37°26' E 023°42'413.0
2017-Jun-15 22:30N 37°29' E 023°42'712.8
2017-Jun-15 21:59N 37°36' E 023°42'612.8
2017-Jun-15 21:30N 37°42' E 023°41'713.3
2017-Jun-15 21:00N 37°48' E 023°37'713.2
2017-Jun-15 20:30N 37°55' E 023°35'2 3.9
2017-Jun-15 19:59N 37°55' E 023°33'0 0.0
2017-Jun-15 19:29N 37°55' E 023°33'0 0.0
2017-Jun-15 18:59N 37°55' E 023°33'0 0.1
2017-Jun-15 18:29N 37°55' E 023°33'0 0.0
2017-Jun-15 17:59N 37°55' E 023°33'0 0.0
2017-Jun-15 17:29N 37°55' E 023°33'0 0.0
2017-Jun-15 16:59N 37°55' E 023°33'0 0.0
2017-Jun-15 16:29N 37°55' E 023°33'0 0.0
2017-Jun-15 15:59N 37°55' E 023°33'0 0.0
2017-Jun-15 15:29N 37°55' E 023°33'0 0.0
2017-Jun-15 14:59N 37°55' E 023°33'0 0.0
2017-Jun-15 14:29N 37°55' E 023°33'0 0.0
2017-Jun-15 13:29N 37°55' E 023°33'0 0.0
2017-Jun-15 12:59N 37°55' E 023°33'1 1.9
2017-Jun-15 12:31N 37°55' E 023°34'2 3.5
2017-Jun-15 12:01N 37°53' E 023°35'713.3
2017-Jun-15 11:30N 37°49' E 023°41'713.6
2017-Jun-15 11:00N 37°42' E 023°45'  

Dump ship's entire track history